Time;durP1;ratioP1;P1;durP2;ratioP2;P2;SDS_P1;SDS_P2;PMS_P1;PMS_P2;Temp;Humidity;BMP_temperature;BMP_pressure;BME280_temperature;BME280_humidity;BME280_pressure;Samples;Min_cycle;Max_cycle;Signal;HPM_P1;HPM_P2
2021/11/23 00:01:34;;;;;;;132.90;93.57;;;256.10;2073.60;;;;;;5052806;28;20020;-59
2021/11/23 00:04:00;;;;;;;143.63;94.50;;;256.20;2073.60;;;;;;5053157;28;20025;-59
2021/11/23 00:06:27;;;;;;;169.80;110.28;;;256.20;2048.00;;;;;;5052638;28;20079;-59
2021/11/23 00:08:52;;;;;;;120.88;79.20;;;256.10;2073.60;;;;;;5052852;28;20025;-59
2021/11/23 00:11:18;;;;;;;130.45;85.85;;;256.20;2073.60;;;;;;5053103;28;20517;-59
2021/11/23 00:13:44;;;;;;;118.47;85.70;;;256.10;2073.60;;;;;;5052717;28;20075;-59
2021/11/23 00:16:09;;;;;;;132.70;101.80;;;256.20;2073.60;;;;;;5052905;28;20064;-58
2021/11/23 00:18:35;;;;;;;99.82;76.07;;;256.10;2048.00;;;;;;5052038;28;20132;-59
2021/11/23 00:21:01;;;;;;;80.28;60.00;;;256.10;2073.60;;;;;;5052961;28;20032;-59
2021/11/23 00:23:27;;;;;;;62.03;42.10;;;256.10;2073.60;;;;;;5052144;28;20029;-59
2021/11/23 00:25:53;;;;;;;55.55;37.95;;;256.10;2073.60;;;;;;5052628;28;20031;-60
2021/11/23 00:28:19;;;;;;;50.53;34.25;;;256.20;2073.60;;;;;;5051530;28;20079;-59
2021/11/23 00:30:46;;;;;;;56.38;33.85;;;256.20;2073.60;;;;;;5052892;28;20017;-59
2021/11/23 00:33:12;;;;;;;53.03;33.30;;;256.20;2073.60;;;;;;5053149;28;20033;-59
2021/11/23 00:35:38;;;;;;;46.85;30.52;;;256.20;2073.60;;;;;;5052955;28;20386;-59
2021/11/23 00:38:04;;;;;;;51.63;31.55;;;256.20;2073.60;;;;;;5051889;28;20033;-61
2021/11/23 00:40:30;;;;;;;48.03;30.02;;;256.20;2073.60;;;;;;5050191;28;20060;-58
2021/11/23 00:42:57;;;;;;;45.08;29.27;;;256.20;2048.00;;;;;;5051892;28;20029;-58
2021/11/23 00:45:23;;;;;;;44.83;28.67;;;256.20;2073.60;;;;;;5052156;28;20017;-58
2021/11/23 00:47:49;;;;;;;49.55;30.27;;;256.20;2048.00;;;;;;5052395;28;20167;-58
2021/11/23 00:50:16;;;;;;;45.80;29.23;;;256.20;2073.60;;;;;;5051312;28;20033;-58
2021/11/23 00:52:42;;;;;;;44.33;29.02;;;256.20;2073.60;;;;;;5053192;28;20112;-58
2021/11/23 00:55:08;;;;;;;48.33;30.60;;;256.20;2048.00;;;;;;5056171;28;20094;-58
2021/11/23 00:57:34;;;;;;;43.53;27.88;;;256.20;2073.60;;;;;;5054864;28;20041;-58
2021/11/23 01:00:00;;;;;;;45.65;28.77;;;256.20;2048.00;;;;;;5056378;28;20040;-59
2021/11/23 01:02:26;;;;;;;42.45;28.30;;;256.20;2073.60;;;;;;5054975;28;20383;-58
2021/11/23 01:04:52;;;;;;;45.28;28.17;;;256.20;2048.00;;;;;;5056578;28;20025;-58
2021/11/23 01:07:18;;;;;;;40.83;28.73;;;256.20;2048.00;;;;;;5056456;28;20035;-58
2021/11/23 01:09:43;;;;;;;41.28;27.20;;;256.20;2073.60;;;;;;5056017;28;20121;-58
2021/11/23 01:12:09;;;;;;;47.00;28.45;;;256.30;2048.00;;;;;;5055716;28;20099;-58
2021/11/23 01:14:36;;;;;;;41.13;26.88;;;256.20;2073.60;;;;;;5056835;28;20029;-59
2021/11/23 01:17:02;;;;;;;47.10;28.98;;;256.30;2048.00;;;;;;5055599;28;20033;-58
2021/11/23 01:19:28;;;;;;;46.25;29.50;;;256.30;2048.00;;;;;;5056387;28;20530;-58
2021/11/23 01:21:54;;;;;;;44.70;28.95;;;256.30;2073.60;;;;;;5054950;28;20025;-58
2021/11/23 01:24:19;;;;;;;44.13;28.60;;;256.20;2048.00;;;;;;5055727;28;20021;-58
2021/11/23 01:26:46;;;;;;;43.10;28.52;;;256.30;2048.00;;;;;;5056018;28;20025;-59
2021/11/23 01:29:12;;;;;;;44.33;27.52;;;256.20;2048.00;;;;;;5056347;28;20438;-58
2021/11/23 01:31:37;;;;;;;46.67;29.40;;;256.20;2048.00;;;;;;5056038;28;20052;-58
2021/11/23 01:34:04;;;;;;;47.63;28.27;;;256.20;2048.00;;;;;;5056353;28;20021;-58
2021/11/23 01:36:29;;;;;;;42.80;28.42;;;256.10;2048.00;;;;;;5055695;28;20498;-58
2021/11/23 01:38:55;;;;;;;45.67;27.70;;;256.10;2073.60;;;;;;5055708;28;20047;-58
2021/11/23 01:41:23;;;;;;;49.65;30.40;;;256.20;2048.00;;;;;;5055589;28;20467;-59
2021/11/23 01:43:49;;;;;;;43.53;27.40;;;256.20;2048.00;;;;;;5055846;28;20032;-58
2021/11/23 01:46:15;;;;;;;49.05;28.92;;;256.20;2048.00;;;;;;5053374;28;20036;-58
2021/11/23 01:48:41;;;;;;;46.00;29.88;;;256.20;2048.00;;;;;;5055999;28;20159;-58
2021/11/23 01:51:06;;;;;;;46.33;28.33;;;256.20;2048.00;;;;;;5055378;28;20028;-58
2021/11/23 01:53:32;;;;;;;48.05;30.08;;;256.20;2048.00;;;;;;5055271;28;20041;-58
2021/11/23 01:55:58;;;;;;;46.20;29.30;;;256.30;2048.00;;;;;;5055393;28;20029;-58
2021/11/23 01:58:24;;;;;;;44.03;28.25;;;256.30;2048.00;;;;;;5055676;28;20588;-58
2021/11/23 02:00:50;;;;;;;49.38;30.13;;;256.30;2022.40;;;;;;5055565;28;20481;-58
2021/11/23 02:03:16;;;;;;;49.83;31.85;;;256.30;2048.00;;;;;;5055360;28;20107;-58
2021/11/23 02:05:42;;;;;;;47.45;29.67;;;256.20;2048.00;;;;;;5055014;28;20025;-60
2021/11/23 02:08:11;;;;;;;47.95;30.42;;;256.20;2048.00;;;;;;5056296;28;20454;-58
2021/11/23 02:10:37;;;;;;;54.92;31.75;;;256.20;2048.00;;;;;;5054793;28;20474;-58
2021/11/23 02:13:04;;;;;;;54.53;32.40;;;256.20;2048.00;;;;;;5056401;28;20021;-59
2021/11/23 02:15:30;;;;;;;46.90;29.10;;;256.20;2048.00;;;;;;5056333;28;20024;-58
2021/11/23 02:17:56;;;;;;;48.83;30.85;;;256.20;2048.00;;;;;;5055863;28;20029;-58
2021/11/23 02:20:23;;;;;;;46.13;29.48;;;256.20;2073.60;;;;;;5056126;28;20028;-58
2021/11/23 02:22:51;;;;;;;46.75;30.05;;;256.30;2048.00;;;;;;5056205;28;20477;-58
2021/11/23 02:25:18;;;;;;;51.60;31.77;;;256.20;2022.40;;;;;;5055757;28;20028;-58
2021/11/23 02:27:46;;;;;;;45.95;29.77;;;256.30;2048.00;;;;;;5054649;28;20032;-59
2021/11/23 02:30:13;;;;;;;52.78;30.92;;;256.20;2022.40;;;;;;5055878;28;20463;-58
2021/11/23 02:32:51;;;;;;;47.97;30.75;;;256.20;2048.00;;;;;;5055728;28;20033;-59
2021/11/23 02:35:17;;;;;;;51.47;31.20;;;256.10;2048.00;;;;;;5055765;28;20028;-58
2021/11/23 02:37:46;;;;;;;44.60;29.80;;;256.20;2022.40;;;;;;5055548;28;20041;-58
2021/11/23 02:40:13;;;;;;;48.85;29.05;;;256.20;2048.00;;;;;;5055625;28;20159;-58
2021/11/23 02:42:38;;;;;;;53.17;31.05;;;256.10;2022.40;;;;;;5055755;28;20029;-58
2021/11/23 02:45:05;;;;;;;51.22;30.20;;;256.20;2048.00;;;;;;5055489;28;20585;-58
2021/11/23 02:47:36;;;;;;;51.38;30.33;;;256.10;2048.00;;;;;;5055731;28;20021;-58
2021/11/23 02:50:03;;;;;;;50.20;29.40;;;256.10;2048.00;;;;;;5055343;28;20045;-58
2021/11/23 02:52:29;;;;;;;48.58;30.35;;;256.10;2048.00;;;;;;5055429;28;20032;-58
2021/11/23 02:55:00;;;;;;;49.03;30.55;;;256.10;2022.40;;;;;;5055590;28;20048;-58
2021/11/23 02:57:31;;;;;;;47.75;28.17;;;256.10;2048.00;;;;;;5055408;28;20389;-58
2021/11/23 02:59:58;;;;;;;49.92;29.58;;;256.20;2022.40;;;;;;5055109;28;20095;-58
2021/11/23 03:02:24;;;;;;;44.55;27.63;;;256.20;2048.00;;;;;;5055395;28;20429;-58
2021/11/23 03:04:56;;;;;;;46.75;26.80;;;256.20;2022.40;;;;;;5054810;28;20017;-58
2021/11/23 03:07:23;;;;;;;46.72;28.52;;;256.10;2022.40;;;;;;5055148;28;20036;-58
2021/11/23 03:09:49;;;;;;;42.53;26.10;;;256.10;2048.00;;;;;;5055298;28;20075;-60
2021/11/23 03:12:17;;;;;;;47.17;27.95;;;256.10;2022.40;;;;;;5055134;28;20032;-58
2021/11/23 03:14:44;;;;;;;47.13;27.17;;;256.10;2022.40;;;;;;5054859;28;20049;-58
2021/11/23 03:17:11;;;;;;;44.95;27.27;;;256.10;2022.40;;;;;;5054442;28;20056;-58
2021/11/23 03:19:37;;;;;;;44.22;27.10;;;256.10;2022.40;;;;;;5053612;28;20036;-58
2021/11/23 03:22:03;;;;;;;40.20;25.10;;;256.10;2048.00;;;;;;5053898;28;20379;-58
2021/11/23 03:24:30;;;;;;;45.42;24.20;;;256.10;2022.40;;;;;;5054781;28;20498;-58
2021/11/23 03:26:56;;;;;;;39.92;24.67;;;256.10;2022.40;;;;;;5054728;28;20029;-58
2021/11/23 03:29:22;;;;;;;44.03;25.23;;;256.20;2022.40;;;;;;5054579;28;20104;-59
2021/11/23 03:31:48;;;;;;;41.83;22.63;;;256.20;1996.80;;;;;;5054632;28;20037;-58
2021/11/23 03:34:14;;;;;;;36.92;22.38;;;256.10;2022.40;;;;;;5054727;28;20017;-58
2021/11/23 03:36:41;;;;;;;39.08;22.77;;;256.20;2022.40;;;;;;5054516;28;20417;-58
2021/11/23 03:39:08;;;;;;;35.58;22.92;;;256.20;2022.40;;;;;;5053659;28;20494;-58
2021/11/23 03:41:35;;;;;;;36.58;22.73;;;256.10;2022.40;;;;;;5054465;28;20029;-58
2021/11/23 03:44:02;;;;;;;33.63;21.70;;;256.10;1996.80;;;;;;5054606;28;20025;-58
2021/11/23 03:46:28;;;;;;;34.75;22.25;;;256.10;2022.40;;;;;;5054503;28;20111;-59
2021/11/23 03:48:54;;;;;;;37.67;22.05;;;256.10;1996.80;;;;;;5054474;28;20044;-58
2021/11/23 03:51:20;;;;;;;38.28;21.58;;;256.10;1996.80;;;;;;5054150;28;20438;-59
2021/11/23 03:53:45;;;;;;;43.78;22.08;;;256.10;1996.80;;;;;;5053998;28;20151;-58
2021/11/23 03:56:13;;;;;;;34.92;22.88;;;256.10;1971.20;;;;;;5054046;28;20336;-58
2021/11/23 03:58:40;;;;;;;36.30;21.30;;;256.10;1996.80;;;;;;5053961;28;20044;-58
2021/11/23 04:01:06;;;;;;;33.97;21.55;;;256.00;1971.20;;;;;;5054223;28;20025;-58
2021/11/23 04:03:34;;;;;;;40.08;21.70;;;256.00;1971.20;;;;;;5052765;28;20048;-58
2021/11/23 04:06:00;;;;;;;33.72;21.25;;;256.00;1971.20;;;;;;5054351;28;20014;-58
2021/11/23 04:08:26;;;;;;;35.92;22.27;;;256.00;1971.20;;;;;;5054066;28;20083;-58
2021/11/23 04:10:52;;;;;;;36.97;21.80;;;256.00;1996.80;;;;;;5054029;28;20029;-58
2021/11/23 04:13:19;;;;;;;38.70;20.92;;;256.00;1971.20;;;;;;5053486;28;20029;-58
2021/11/23 04:15:45;;;;;;;44.20;22.63;;;231.30;1971.20;;;;;;5053925;28;20153;-59
2021/11/23 04:18:11;;;;;;;45.40;23.63;;;256.00;2022.40;;;;;;5053814;28;20417;-58
2021/11/23 04:20:38;;;;;;;40.10;23.35;;;231.30;1996.80;;;;;;5053765;28;20025;-60
2021/11/23 04:23:04;;;;;;;40.67;24.00;;;256.00;2048.00;;;;;;5052218;28;20067;-58
2021/11/23 04:25:30;;;;;;;42.33;21.88;;;256.20;2099.20;;;;;;5053816;28;20078;-58
2021/11/23 04:27:56;;;;;;;36.70;21.65;;;256.20;1996.80;;;;;;5052943;28;20451;-58
2021/11/23 04:30:23;;;;;;;40.17;21.23;;;256.10;1996.80;;;;;;5053505;28;20481;-58
2021/11/23 04:32:49;;;;;;;36.20;21.20;;;256.00;1996.80;;;;;;5053649;28;20032;-58
2021/11/23 04:35:16;;;;;;;35.75;20.00;;;256.00;1996.80;;;;;;5053824;28;20025;-59
2021/11/23 04:37:42;;;;;;;35.42;21.33;;;231.30;1996.80;;;;;;5053648;28;20033;-58
2021/11/23 04:40:09;;;;;;;31.52;19.45;;;231.30;1971.20;;;;;;5053718;28;20025;-58
2021/11/23 04:42:36;;;;;;;33.63;19.50;;;231.20;1971.20;;;;;;5052496;28;20485;-58
2021/11/23 04:45:04;;;;;;;33.45;20.77;;;231.20;1971.20;;;;;;5053642;28;20374;-58
2021/11/23 04:47:30;;;;;;;32.22;18.90;;;231.20;1971.20;;;;;;5053182;28;20029;-58
2021/11/23 04:49:57;;;;;;;39.13;20.48;;;231.10;1971.20;;;;;;5053618;28;20152;-58
2021/11/23 04:52:23;;;;;;;36.63;20.65;;;231.10;1971.20;;;;;;5053513;28;20029;-58
2021/11/23 04:54:49;;;;;;;35.25;19.95;;;231.10;1971.20;;;;;;5053232;28;20055;-58
2021/11/23 04:57:15;;;;;;;37.50;20.05;;;231.10;1971.20;;;;;;5053597;28;20029;-58
2021/11/23 04:59:40;;;;;;;34.70;20.48;;;231.00;1971.20;;;;;;5052098;28;20355;-58
2021/11/23 05:02:06;;;;;;;32.67;19.80;;;231.00;1971.20;;;;;;5053586;28;20028;-58
2021/11/23 05:04:32;;;;;;;36.70;20.95;;;231.00;1971.20;;;;;;5053203;28;20111;-58
2021/11/23 05:06:58;;;;;;;34.35;20.38;;;231.00;1971.20;;;;;;5053197;28;20112;-58
2021/11/23 05:09:23;;;;;;;30.40;18.92;;;231.00;1971.20;;;;;;5053364;28;20033;-58
2021/11/23 05:11:49;;;;;;;30.10;18.67;;;231.00;1971.20;;;;;;5052157;28;20124;-58
2021/11/23 05:14:16;;;;;;;32.15;17.88;;;231.00;1971.20;;;;;;5052897;28;20021;-58
2021/11/23 05:16:42;;;;;;;30.90;19.33;;;231.00;1945.60;;;;;;5053274;28;20020;-58
2021/11/23 05:19:08;;;;;;;29.55;18.50;;;230.90;1971.20;;;;;;5053214;28;20040;-58
2021/11/23 05:21:34;;;;;;;32.70;19.20;;;230.90;1971.20;;;;;;5053594;28;20036;-58
2021/11/23 05:24:00;;;;;;;35.00;19.20;;;230.90;1971.20;;;;;;5053291;28;20028;-59
2021/11/23 05:26:27;;;;;;;35.05;20.13;;;230.90;1971.20;;;;;;5052670;28;20036;-58
2021/11/23 05:28:53;;;;;;;38.05;22.42;;;230.90;1945.60;;;;;;5053102;28;20025;-58
2021/11/23 05:31:19;;;;;;;39.00;21.65;;;230.80;1971.20;;;;;;5052768;28;20028;-58
2021/11/23 05:33:45;;;;;;;36.50;21.88;;;230.80;1971.20;;;;;;5053114;28;20025;-58
2021/11/23 05:36:10;;;;;;;37.63;21.48;;;230.70;1971.20;;;;;;5053203;28;20021;-58
2021/11/23 05:38:36;;;;;;;37.63;22.40;;;230.70;1971.20;;;;;;5053555;28;20120;-58
2021/11/23 05:41:02;;;;;;;41.05;24.30;;;230.70;1971.20;;;;;;5056550;28;20025;-58
2021/11/23 05:43:28;;;;;;;43.30;24.55;;;230.70;1971.20;;;;;;5056616;28;20414;-58
2021/11/23 05:45:53;;;;;;;41.78;23.35;;;230.70;1971.20;;;;;;5056625;28;20028;-58
2021/11/23 05:48:19;;;;;;;35.40;21.95;;;230.70;1971.20;;;;;;5056391;28;20021;-58
2021/11/23 05:50:45;;;;;;;36.25;22.30;;;230.70;1971.20;;;;;;5056325;28;20079;-58
2021/11/23 05:53:11;;;;;;;37.05;22.63;;;230.70;1971.20;;;;;;5056423;28;20096;-58
2021/11/23 05:55:37;;;;;;;41.53;23.75;;;230.70;1971.20;;;;;;5055847;28;20029;-58
2021/11/23 05:58:03;;;;;;;41.80;23.90;;;230.70;1971.20;;;;;;5056256;28;20048;-58
2021/11/23 06:00:30;;;;;;;44.30;25.02;;;230.70;1971.20;;;;;;5054850;28;20382;-58
2021/11/23 06:02:56;;;;;;;45.42;25.02;;;230.70;1945.60;;;;;;5056180;28;20025;-58
2021/11/23 06:05:22;;;;;;;39.22;24.35;;;230.60;1945.60;;;;;;5056952;28;20139;-58
2021/11/23 06:07:48;;;;;;;38.53;23.38;;;230.50;1945.60;;;;;;5055749;28;20483;-58
2021/11/23 06:10:14;;;;;;;40.25;24.85;;;230.50;1945.60;;;;;;5055910;28;20024;-58
2021/11/23 06:12:40;;;;;;;41.65;24.63;;;230.50;1971.20;;;;;;5055867;28;20036;-58
2021/11/23 06:15:08;;;;;;;47.33;28.02;;;230.60;1971.20;;;;;;5055909;28;20021;-58
2021/11/23 06:17:34;;;;;;;52.38;30.83;;;230.50;1945.60;;;;;;5056460;28;20032;-58
2021/11/23 06:20:00;;;;;;;49.25;29.65;;;230.50;1971.20;;;;;;5055849;28;20028;-58
2021/11/23 06:22:26;;;;;;;43.28;26.85;;;230.50;1945.60;;;;;;5055970;28;20029;-58
2021/11/23 06:24:52;;;;;;;42.28;26.13;;;230.50;1945.60;;;;;;5055705;28;20104;-58
2021/11/23 06:27:18;;;;;;;40.88;24.95;;;230.40;1945.60;;;;;;5055609;28;20104;-58
2021/11/23 06:29:43;;;;;;;41.80;24.83;;;230.40;1945.60;;;;;;5055512;28;20024;-58
2021/11/23 06:32:09;;;;;;;51.85;29.20;;;230.40;1945.60;;;;;;5055810;28;20105;-58
2021/11/23 06:34:35;;;;;;;51.97;30.67;;;230.40;1945.60;;;;;;5055731;28;20041;-58
2021/11/23 06:37:01;;;;;;;48.67;29.60;;;230.40;1971.20;;;;;;5055775;28;20025;-58
2021/11/23 06:39:27;;;;;;;60.42;34.97;;;230.40;1971.20;;;;;;5055907;28;20087;-58
2021/11/23 06:41:53;;;;;;;55.10;32.97;;;230.40;1971.20;;;;;;5056024;28;20470;-58
2021/11/23 06:44:18;;;;;;;52.53;32.03;;;230.40;1971.20;;;;;;5055504;28;20060;-58
2021/11/23 06:46:44;;;;;;;44.33;27.55;;;230.50;1971.20;;;;;;5055764;28;20118;-58
2021/11/23 06:49:10;;;;;;;46.42;26.83;;;230.40;1971.20;;;;;;5055754;28;20028;-58
2021/11/23 06:51:36;;;;;;;46.03;26.67;;;230.40;1971.20;;;;;;5054551;28;20028;-58
2021/11/23 06:54:02;;;;;;;48.00;27.13;;;230.50;1971.20;;;;;;5055221;28;20398;-58
2021/11/23 06:56:28;;;;;;;41.92;25.08;;;230.50;1971.20;;;;;;5055372;28;20162;-58
2021/11/23 06:58:56;;;;;;;40.33;23.92;;;230.60;1971.20;;;;;;5055637;28;20103;-58
2021/11/23 07:01:22;;;;;;;39.58;23.17;;;230.60;1971.20;;;;;;5055419;28;20086;-58
2021/11/23 07:03:47;;;;;;;39.90;23.10;;;230.60;1971.20;;;;;;5055189;28;20028;-58
2021/11/23 07:06:13;;;;;;;40.97;23.27;;;230.70;1971.20;;;;;;5055170;28;20092;-58
2021/11/23 07:08:39;;;;;;;33.33;20.40;;;230.60;1971.20;;;;;;5055135;28;20464;-58
2021/11/23 07:11:06;;;;;;;33.58;19.42;;;230.70;1971.20;;;;;;5054786;28;20029;-58
2021/11/23 07:13:34;;;;;;;29.77;18.70;;;230.70;1971.20;;;;;;5054999;28;20028;-58
2021/11/23 07:16:00;;;;;;;34.83;19.25;;;230.70;1945.60;;;;;;5054812;28;20052;-59
2021/11/23 07:18:26;;;;;;;28.95;17.95;;;230.80;1945.60;;;;;;5055093;28;20025;-58
2021/11/23 07:20:53;;;;;;;30.02;17.60;;;230.80;1945.60;;;;;;5054876;28;20017;-58
2021/11/23 07:23:18;;;;;;;28.48;16.58;;;230.80;1945.60;;;;;;5053888;28;20045;-58
2021/11/23 07:25:44;;;;;;;27.95;16.67;;;230.80;1945.60;;;;;;5054574;28;20455;-58
2021/11/23 07:28:10;;;;;;;30.70;18.15;;;230.80;1945.60;;;;;;5054676;28;20078;-58
2021/11/23 07:30:35;;;;;;;29.98;19.38;;;230.80;1945.60;;;;;;5054584;28;20371;-58
2021/11/23 07:33:01;;;;;;;36.78;21.20;;;230.80;1945.60;;;;;;5053739;28;20075;-59
2021/11/23 07:35:27;;;;;;;33.55;21.27;;;230.90;1945.60;;;;;;5053950;28;20433;-59
2021/11/23 07:37:53;;;;;;;39.83;24.70;;;230.90;1920.00;;;;;;5053844;28;20036;-58
2021/11/23 07:40:19;;;;;;;45.55;28.13;;;230.80;1920.00;;;;;;5053702;28;20100;-59
2021/11/23 07:42:44;;;;;;;42.47;27.35;;;230.90;1945.60;;;;;;5053819;28;20094;-58
2021/11/23 07:45:11;;;;;;;37.28;23.60;;;230.80;1945.60;;;;;;5053810;28;20108;-59
2021/11/23 07:47:37;;;;;;;39.90;24.95;;;230.80;1920.00;;;;;;5052382;28;20024;-59
2021/11/23 07:50:05;;;;;;;48.30;27.70;;;230.90;1920.00;;;;;;5052541;28;20031;-59
2021/11/23 07:52:31;;;;;;;41.97;24.88;;;230.80;1920.00;;;;;;5053667;28;20017;-59
2021/11/23 07:54:56;;;;;;;48.72;28.05;;;230.90;1920.00;;;;;;5054099;28;20056;-59
2021/11/23 07:57:22;;;;;;;35.03;22.75;;;230.90;1920.00;;;;;;5053001;28;20049;-59
2021/11/23 07:59:48;;;;;;;35.53;21.85;;;230.90;1920.00;;;;;;5054173;28;20032;-60
2021/11/23 08:02:14;;;;;;;29.58;18.38;;;230.90;1920.00;;;;;;5053955;28;20048;-59
2021/11/23 08:04:39;;;;;;;28.63;17.92;;;230.90;1920.00;;;;;;5051200;28;20029;-62
2021/11/23 08:07:05;;;;;;;29.20;18.60;;;230.90;1920.00;;;;;;5054112;28;20029;-60
2021/11/23 08:09:31;;;;;;;27.10;17.48;;;230.90;1920.00;;;;;;5054018;28;20049;-60
2021/11/23 08:11:57;;;;;;;26.85;18.45;;;230.90;1920.00;;;;;;5052517;28;20387;-59
2021/11/23 08:14:24;;;;;;;25.05;15.70;;;231.00;1945.60;;;;;;5053995;28;20021;-59
2021/11/23 08:16:50;;;;;;;25.90;16.48;;;231.00;1894.40;;;;;;5053773;28;20040;-59
2021/11/23 08:19:16;;;;;;;28.67;18.55;;;231.00;1920.00;;;;;;5053783;28;20021;-59
2021/11/23 08:21:42;;;;;;;30.00;17.77;;;231.10;1920.00;;;;;;5053586;28;20036;-59
2021/11/23 08:24:07;;;;;;;32.45;19.52;;;231.10;1920.00;;;;;;5052485;28;20037;-59
2021/11/23 08:26:34;;;;;;;33.33;20.67;;;231.10;1920.00;;;;;;5053735;28;20455;-59
2021/11/23 08:29:00;;;;;;;33.90;19.90;;;231.10;1920.00;;;;;;5053950;28;20462;-59
2021/11/23 08:31:26;;;;;;;32.67;20.15;;;231.20;1894.40;;;;;;5053594;28;20029;-61
2021/11/23 08:33:51;;;;;;;28.00;18.10;;;231.20;1920.00;;;;;;5053656;28;20420;-60
2021/11/23 08:36:17;;;;;;;30.15;18.77;;;231.30;1868.80;;;;;;5053594;28;20429;-59
2021/11/23 08:38:44;;;;;;;29.70;18.35;;;231.30;1894.40;;;;;;5053221;28;20033;-59
2021/11/23 08:41:10;;;;;;;24.55;16.88;;;256.00;1868.80;;;;;;5052597;28;20025;-59
2021/11/23 08:43:37;;;;;;;22.88;14.60;;;256.00;1868.80;;;;;;5053586;28;20029;-59
2021/11/23 08:46:03;;;;;;;24.40;15.25;;;256.00;1817.60;;;;;;5053524;28;20021;-59
2021/11/23 08:48:29;;;;;;;22.77;14.02;;;256.10;1792.00;;;;;;5052422;28;20037;-61
2021/11/23 08:50:55;;;;;;;26.50;15.73;;;256.10;1792.00;;;;;;5053647;28;20471;-60
2021/11/23 08:53:21;;;;;;;27.02;16.65;;;256.10;1792.00;;;;;;5053368;28;20056;-59
2021/11/23 08:55:46;;;;;;;44.13;15.40;;;256.20;1792.00;;;;;;5053301;28;20147;-60
2021/11/23 08:58:13;;;;;;;52.97;15.85;;;256.20;1792.00;;;;;;5053343;28;20029;-59
2021/11/23 09:00:38;;;;;;;52.10;15.48;;;256.30;1817.60;;;;;;5053159;28;20032;-59
2021/11/23 09:03:06;;;;;;;31.15;16.38;;;256.40;1792.00;;;;;;5053877;28;20029;-60
2021/11/23 09:05:36;;;;;;;42.80;19.13;;;256.50;1792.00;;;;;;5053388;28;20025;-59
2021/11/23 09:08:03;;;;;;;35.53;21.38;;;256.50;1766.40;;;;;;5053509;28;20562;-59
2021/11/23 09:10:33;;;;;;;33.92;20.27;;;256.60;1766.40;;;;;;5053343;28;20032;-59
2021/11/23 09:13:00;;;;;;;34.88;19.17;;;256.60;1740.80;;;;;;5053283;28;20029;-59
2021/11/23 09:15:27;;;;;;;24.92;15.85;;;256.70;1740.80;;;;;;5056903;28;20036;-60
2021/11/23 09:18:00;;;;;;;22.55;14.68;;;256.70;1740.80;;;;;;5055779;28;20033;-61
2021/11/23 09:20:33;;;;;;;28.52;15.98;;;256.80;1689.60;;;;;;5057215;28;20028;-61
2021/11/23 09:23:00;;;;;;;31.38;16.60;;;256.80;1689.60;;;;;;5057022;28;20025;-59
2021/11/23 09:25:26;;;;;;;28.73;14.73;;;256.90;1715.20;;;;;;5056843;28;20048;-61
2021/11/23 09:27:51;;;;;;;21.10;11.98;;;256.90;1689.60;;;;;;5057120;28;20033;-60
2021/11/23 09:30:17;;;;;;;18.77;10.90;;;281.60;1689.60;;;;;;5057039;28;20025;-59
2021/11/23 09:32:44;;;;;;;20.15;11.60;;;281.60;1689.60;;;;;;5057058;28;20027;-59
2021/11/23 09:35:13;;;;;;;22.42;12.27;;;281.60;1689.60;;;;;;5055491;28;20067;-59
2021/11/23 09:37:39;;;;;;;17.52;11.52;;;281.60;1689.60;;;;;;5056800;28;20057;-59
2021/11/23 09:40:06;;;;;;;21.50;13.35;;;281.70;1664.00;;;;;;5056457;28;20029;-60
2021/11/23 09:42:32;;;;;;;16.85;12.20;;;281.70;1664.00;;;;;;5056283;28;20532;-59
2021/11/23 09:44:58;;;;;;;21.98;14.50;;;281.80;1664.00;;;;;;5056786;28;20029;-60
2021/11/23 09:47:27;;;;;;;24.02;14.10;;;281.80;1638.40;;;;;;5056698;28;20021;-59
2021/11/23 09:49:55;;;;;;;23.88;14.98;;;281.80;1638.40;;;;;;5056478;28;20467;-61
2021/11/23 09:52:20;;;;;;;27.85;17.05;;;281.80;1638.40;;;;;;5056506;28;20475;-59
2021/11/23 09:54:46;;;;;;;35.50;21.27;;;281.80;1664.00;;;;;;5056240;28;20044;-59
2021/11/23 09:57:12;;;;;;;47.83;23.40;;;281.90;1638.40;;;;;;5056412;28;20079;-59
2021/11/23 09:59:38;;;;;;;85.78;38.38;;;281.90;1587.20;;;;;;5056501;28;20498;-60
2021/11/23 10:02:04;;;;;;;78.30;37.15;;;281.90;1587.20;;;;;;5055653;28;20371;-59
2021/11/23 10:04:31;;;;;;;67.45;32.85;;;281.90;1587.20;;;;;;5056279;28;20371;-59
2021/11/23 10:06:57;;;;;;;50.00;24.75;;;282.00;1612.80;;;;;;5055134;28;20120;-59
2021/11/23 10:09:36;;;;;;;41.53;22.77;;;282.00;1612.80;;;;;;5056511;28;20116;-59
2021/11/23 10:12:16;;;;;;;32.03;19.00;;;282.10;1612.80;;;;;;5056195;28;20017;-59
2021/11/23 10:15:08;;;;;;;26.75;16.70;;;282.10;1612.80;;;;;;5056782;28;20033;-59
2021/11/23 10:17:33;;;;;;;25.52;16.38;;;282.10;1561.60;;;;;;5056029;28;20091;-59
2021/11/23 10:19:59;;;;;;;27.15;16.05;;;282.10;1536.00;;;;;;5055881;28;20021;-60
2021/11/23 10:22:34;;;;;;;24.10;14.77;;;282.20;1587.20;;;;;;5055172;28;20111;-61
2021/11/23 10:25:07;;;;;;;19.17;12.57;;;282.30;1587.20;;;;;;5055978;28;20021;-61
2021/11/23 10:27:41;;;;;;;15.60;11.02;;;282.30;1587.20;;;;;;5056003;28;20024;-59
2021/11/23 10:30:08;;;;;;;20.40;12.10;;;282.40;1587.20;;;;;;5055635;28;20028;-59
2021/11/23 10:32:46;;;;;;;13.13;9.70;;;282.40;1587.20;;;;;;5055833;28;20513;-59
2021/11/23 10:35:15;;;;;;;14.43;9.70;;;282.50;1561.60;;;;;;5055574;28;20024;-59
2021/11/23 10:37:41;;;;;;;15.45;9.65;;;307.20;1587.20;;;;;;5055976;28;20501;-59
2021/11/23 10:40:15;;;;;;;14.57;9.57;;;307.20;1587.20;;;;;;5055662;28;20024;-59
2021/11/23 10:42:43;;;;;;;15.88;11.80;;;307.20;1561.60;;;;;;5055739;28;20104;-59
2021/11/23 10:45:11;;;;;;;22.23;12.93;;;307.20;1587.20;;;;;;5055491;28;20029;-59
2021/11/23 10:47:42;;;;;;;20.67;13.73;;;307.30;1587.20;;;;;;5055339;28;20025;-59
2021/11/23 10:50:10;;;;;;;18.90;12.50;;;307.30;1561.60;;;;;;5055695;28;20082;-59
2021/11/23 10:52:39;;;;;;;17.63;11.80;;;307.30;1561.60;;;;;;5055452;28;20028;-61
2021/11/23 10:55:28;;;;;;;17.73;11.82;;;307.40;1561.60;;;;;;5053984;28;20052;-59
2021/11/23 10:57:56;;;;;;;16.55;10.25;;;307.40;1561.60;;;;;;5055318;28;20036;-60
2021/11/23 11:00:24;;;;;;;15.45;10.30;;;307.40;1536.00;;;;;;5055293;28;20017;-59
2021/11/23 11:02:53;;;;;;;17.05;10.40;;;307.40;1561.60;;;;;;5054057;28;20057;-59
2021/11/23 11:05:19;;;;;;;22.70;12.73;;;307.40;1561.60;;;;;;5055337;28;20029;-59
2021/11/23 11:07:46;;;;;;;22.40;14.90;;;307.50;1536.00;;;;;;5055260;28;20029;-60
2021/11/23 11:10:15;;;;;;;25.38;13.52;;;307.50;1536.00;;;;;;5055119;28;20071;-59
2021/11/23 11:12:42;;;;;;;25.42;14.85;;;307.60;1510.40;;;;;;5055080;28;20029;-59
2021/11/23 11:15:11;;;;;;;19.13;11.95;;;307.60;1510.40;;;;;;5055183;28;20017;-59
2021/11/23 11:17:38;;;;;;;24.67;14.68;;;307.60;1484.80;;;;;;5055148;28;20470;-59
2021/11/23 11:20:06;;;;;;;21.70;13.05;;;307.70;1510.40;;;;;;5054899;28;20021;-61
2021/11/23 11:22:32;;;;;;;18.70;13.02;;;307.70;1484.80;;;;;;5055184;28;20029;-59
2021/11/23 11:27:46;;;;;;;23.93;15.27;;;307.70;1484.80;;;;;;5054872;28;20043;-61
2021/11/23 11:30:41;;;;;;;33.25;18.33;;;307.70;1484.80;;;;;;5054707;28;20029;-59
2021/11/23 11:33:11;;;;;;;25.23;14.50;;;307.60;1484.80;;;;;;5054621;28;20024;-61
2021/11/23 11:35:41;;;;;;;24.50;14.88;;;307.60;1510.40;;;;;;5054967;28;20021;-59
2021/11/23 11:38:31;;;;;;;22.27;13.43;;;307.60;1484.80;;;;;;5053716;28;20036;-60
2021/11/23 11:41:01;;;;;;;20.90;13.05;;;307.70;1510.40;;;;;;5054274;28;20017;-60
2021/11/23 11:43:38;;;;;;;16.42;10.93;;;307.70;1510.40;;;;;;5054658;28;20051;-59
2021/11/23 11:46:07;;;;;;;15.10;10.90;;;307.80;1484.80;;;;;;5053030;28;20108;-60
2021/11/23 11:48:34;;;;;;;12.82;9.38;;;307.80;1484.80;;;;;;5054354;28;20039;-60
2021/11/23 11:51:02;;;;;;;12.75;9.10;;;307.80;1459.20;;;;;;5054461;28;20032;-61
2021/11/23 11:53:35;;;;;;;13.75;9.52;;;307.80;1459.20;;;;;;5054171;28;20049;-59
2021/11/23 11:56:02;;;;;;;13.63;9.02;;;307.80;1459.20;;;;;;5054195;28;20540;-61
2021/11/23 11:58:58;;;;;;;14.95;9.75;;;307.90;1433.60;;;;;;5054166;28;20044;-61
2021/11/23 12:01:28;;;;;;;13.57;9.65;;;307.90;1433.60;;;;;;5053552;28;20037;-60